Hauptseite
METAR-TAF:

METAR-TAF

Flughäfen :

Akeno, Japan

Breite: 34-32N, Länge: 136-41E, Höhe: 6 m

Beobachtung

Neuester Wetterbericht von vor 9 Stunden und 12 Minuten, um 05:16 UTC
Wind 9 kt aus Ost/Südost
Temperatur 18°C
Luftfeuchtigkeit 88%
Luftdruck 1014 hPa
Sichtweite 10 km oder mehr
Leicht bewölkt in der Höhe von 800 ft
Aufgelockert bewölkt in der Höhe von 1500 ft
Durchbrochene Bewölkung in der Höhe von 3000 ft
Regenschauer

METAR: RJOE 230516Z 11009KT 9999 -SHRA FEW008 SCT015 BKN030 18/16 Q1014 RMK 1ST008 3CU015 5SC030 A2995

Zeit: 23:28 (14:28 UTC)


TAF: fehlend

Wetterbeobachtungen und Prognosen von mehr als 4000 Flughäfen (METAR und TAF Bericht).

Die verfügbaren Stationen werden durch gelbe und rote Markierungen auf der Karte dargestellt.

Führen Sie die Maus auf sie, um den Namen der Station zu sehen.

Darauf klicken, um die Beobachtung von Wetterbeobachtungen und Prognosen zu sehen.

Um die Karte zu ändern : klicken Sie auf den grünen Tasten mit einem schwarzen Kreuz Zum Vergrößern, auf den grünen Button mit einem Gedankenstrich zu verkleinern, oder auf die grünen Pfeile für benachbarte Karten.


METAR-TAF: